createdAt,value
2016-12-25T00:00:02.015Z,25.67
2016-12-25T00:00:42.511Z,25.76
2016-12-25T00:01:23.020Z,25.67
2016-12-25T00:02:03.514Z,25.76
2016-12-25T00:02:44.030Z,25.76
2016-12-25T00:03:24.513Z,25.67
2016-12-25T00:04:05.009Z,25.57
2016-12-25T00:04:45.509Z,25.67
2016-12-25T00:05:26.018Z,25.67
2016-12-25T00:06:06.507Z,25.67
2016-12-25T00:06:47.016Z,25.76
2016-12-25T00:07:27.506Z,25.76
2016-12-25T00:08:08.016Z,25.95
2016-12-25T00:08:48.506Z,25.95
2016-12-25T00:09:29.002Z,26.05
2016-12-25T00:10:09.484Z,25.85
2016-12-25T00:10:49.971Z,25.95
2016-12-25T00:11:30.467Z,25.76
2016-12-25T00:12:10.954Z,25.76
2016-12-25T00:12:51.447Z,25.85
2016-12-25T00:13:31.949Z,25.95
2016-12-25T00:14:12.447Z,25.85
2016-12-25T00:14:52.944Z,25.85
2016-12-25T00:15:33.488Z,25.85
2016-12-25T00:16:13.976Z,25.85
2016-12-25T00:16:54.468Z,25.95
2016-12-25T00:17:34.948Z,25.85
2016-12-25T00:18:15.461Z,25.85
2016-12-25T00:18:55.944Z,25.85
2016-12-25T00:19:36.441Z,25.85
2016-12-25T00:20:16.939Z,25.76
2016-12-25T00:20:57.424Z,25.85
2016-12-25T00:21:37.917Z,25.85
2016-12-25T00:22:18.407Z,25.85
2016-12-25T00:22:58.901Z,25.85
2016-12-25T00:23:39.388Z,25.85
2016-12-25T00:24:19.904Z,25.85
2016-12-25T00:25:00.387Z,25.76
2016-12-25T00:25:40.900Z,25.85
2016-12-25T00:26:21.386Z,25.85
2016-12-25T00:27:01.884Z,25.85
2016-12-25T00:27:42.379Z,25.85
2016-12-25T00:28:22.883Z,25.76
2016-12-25T00:29:03.380Z,25.85
2016-12-25T00:29:43.891Z,25.85
2016-12-25T00:30:24.379Z,25.76
2016-12-25T00:31:04.890Z,25.76
2016-12-25T00:31:45.381Z,25.76
2016-12-25T00:32:25.874Z,25.76
2016-12-25T00:33:06.378Z,25.85
2016-12-25T00:33:46.890Z,26.05
2016-12-25T00:34:27.376Z,26.05
2016-12-25T00:35:07.876Z,25.85
2016-12-25T00:35:48.376Z,25.85
2016-12-25T00:36:28.854Z,25.85
2016-12-25T00:37:09.456Z,25.76
2016-12-25T00:37:49.951Z,25.95
2016-12-25T00:38:30.451Z,25.76
2016-12-25T00:39:10.928Z,26.05
2016-12-25T00:39:51.440Z,25.76
2016-12-25T00:40:31.923Z,25.76
2016-12-25T00:41:12.432Z,25.95
2016-12-25T00:41:52.921Z,26.15
2016-12-25T00:42:33.436Z,25.85
2016-12-25T00:43:13.922Z,25.76
2016-12-25T00:43:54.434Z,26.05
2016-12-25T00:44:34.914Z,25.76
2016-12-25T00:45:15.433Z,26.15
2016-12-25T00:45:55.917Z,26.15
2016-12-25T00:46:36.409Z,25.76
2016-12-25T00:47:16.904Z,25.85
2016-12-25T00:47:57.397Z,25.95
2016-12-25T00:48:37.879Z,26.05
2016-12-25T00:49:18.365Z,26.15
2016-12-25T00:49:58.860Z,25.85
2016-12-25T00:50:39.352Z,25.76
2016-12-25T00:51:19.846Z,26.15
2016-12-25T00:52:00.337Z,25.95
2016-12-25T00:52:40.826Z,25.95
2016-12-25T00:53:21.320Z,26.15
2016-12-25T00:54:01.806Z,26.05
2016-12-25T00:54:42.322Z,25.85
2016-12-25T00:55:22.808Z,25.95
2016-12-25T00:56:03.301Z,26.05
2016-12-25T00:56:43.804Z,25.95
2016-12-25T00:57:24.316Z,26.05
2016-12-25T00:58:04.804Z,26.15
2016-12-25T00:58:45.299Z,26.05
2016-12-25T00:59:25.782Z,25.95
2016-12-25T01:00:06.270Z,26.05
2016-12-25T01:00:46.762Z,25.95
2016-12-25T01:01:27.248Z,25.95
2016-12-25T01:02:07.742Z,25.95
2016-12-25T01:02:48.226Z,26.05
2016-12-25T01:03:28.725Z,26.05
2016-12-25T01:04:09.215Z,26.05
2016-12-25T01:04:49.697Z,26.05
2016-12-25T01:05:30.194Z,25.95
2016-12-25T01:06:10.684Z,26.05
2016-12-25T01:06:51.173Z,25.95
2016-12-25T01:07:31.739Z,25.95
2016-12-25T01:08:12.244Z,25.95
2016-12-25T01:08:52.743Z,25.95
2016-12-25T01:09:33.243Z,25.95
2016-12-25T01:10:13.755Z,25.95
2016-12-25T01:10:54.246Z,25.95
2016-12-25T01:11:34.736Z,25.95
2016-12-25T01:12:15.233Z,26.05
2016-12-25T01:12:55.715Z,25.95
2016-12-25T01:13:36.214Z,25.85
2016-12-25T01:14:16.711Z,25.85
2016-12-25T01:14:57.197Z,25.85
2016-12-25T01:15:37.686Z,25.95
2016-12-25T01:16:18.181Z,26.05
2016-12-25T01:16:58.683Z,26.24
2016-12-25T01:17:39.184Z,25.95
2016-12-25T01:18:19.680Z,25.85
2016-12-25T01:19:00.192Z,25.76
2016-12-25T01:19:40.682Z,25.95
2016-12-25T01:20:21.179Z,26.34
2016-12-25T01:21:01.660Z,25.85
2016-12-25T01:21:42.152Z,25.95
2016-12-25T01:22:22.641Z,26.34
2016-12-25T01:23:03.131Z,26.24
2016-12-25T01:23:43.623Z,26.34
2016-12-25T01:24:24.125Z,26.24
2016-12-25T01:25:04.626Z,26.24
2016-12-25T01:25:45.125Z,26.15
2016-12-25T01:26:25.643Z,26.15
2016-12-25T01:27:06.128Z,26.24
2016-12-25T01:27:46.622Z,26.15
2016-12-25T01:28:27.121Z,26.15
2016-12-25T01:29:07.621Z,26.15
2016-12-25T01:29:48.122Z,26.24
2016-12-25T01:30:28.618Z,26.15
2016-12-25T01:31:09.118Z,26.15
2016-12-25T01:31:49.599Z,26.15
2016-12-25T01:32:30.084Z,26.15
2016-12-25T01:33:10.570Z,26.15
2016-12-25T01:33:51.076Z,26.05
2016-12-25T01:34:31.567Z,26.15
2016-12-25T01:35:12.063Z,26.05
2016-12-25T01:35:53.496Z,25.95
2016-12-25T01:36:33.017Z,26.24
2016-12-25T01:37:13.509Z,26.05
2016-12-25T01:37:54.015Z,26.05
2016-12-25T01:38:34.521Z,26.24
2016-12-25T01:39:15.014Z,26.05
2016-12-25T01:39:55.521Z,25.95
2016-12-25T01:40:36.008Z,25.95
2016-12-25T01:41:16.503Z,26.15
2016-12-25T01:41:56.988Z,26.15
2016-12-25T01:42:37.486Z,26.05
2016-12-25T01:43:17.973Z,26.24
2016-12-25T01:43:58.457Z,26.24
2016-12-25T01:44:38.955Z,26.24
2016-12-25T01:45:19.458Z,26.24
2016-12-25T01:45:59.966Z,26.15
2016-12-25T01:46:40.456Z,26.43
2016-12-25T01:47:20.944Z,26.43
2016-12-25T01:48:01.431Z,26.43
2016-12-25T01:48:41.920Z,26.43
2016-12-25T01:49:22.413Z,26.43
2016-12-25T01:50:02.901Z,26.62
2016-12-25T01:50:43.403Z,26.62
2016-12-25T01:51:23.899Z,26.62
2016-12-25T01:52:04.407Z,26.72
2016-12-25T01:52:44.897Z,26.72
2016-12-25T01:53:25.407Z,26.62
2016-12-25T01:54:05.897Z,26.72
2016-12-25T01:54:46.395Z,26.72
2016-12-25T01:55:26.896Z,26.72
2016-12-25T01:56:07.393Z,26.53
2016-12-25T01:56:47.886Z,26.53
2016-12-25T01:57:28.370Z,26.43
2016-12-25T01:58:08.869Z,26.53
2016-12-25T01:58:49.364Z,26.53
2016-12-25T01:59:29.870Z,26.53
2016-12-25T02:00:10.374Z,26.34
2016-12-25T02:00:50.855Z,26.43
2016-12-25T02:01:31.339Z,26.34
2016-12-25T02:02:11.852Z,26.43
2016-12-25T02:02:52.344Z,26.34
2016-12-25T02:03:32.850Z,26.34
2016-12-25T02:04:13.339Z,26.53
2016-12-25T02:04:53.831Z,26.72
2016-12-25T02:05:34.332Z,26.62
2016-12-25T02:06:14.841Z,26.62
2016-12-25T02:06:55.336Z,26.53
2016-12-25T02:07:35.831Z,26.62
2016-12-25T02:08:16.312Z,26.82
2016-12-25T02:08:56.802Z,26.72
2016-12-25T02:09:37.300Z,26.82
2016-12-25T02:10:17.788Z,26.53
2016-12-25T02:10:58.307Z,26.72
2016-12-25T02:11:38.784Z,26.62
2016-12-25T02:12:19.289Z,26.82
2016-12-25T02:12:59.799Z,26.62
2016-12-25T02:13:40.261Z,26.62
2016-12-25T02:14:20.790Z,26.62
2016-12-25T02:15:01.285Z,26.72
2016-12-25T02:15:41.777Z,26.72
2016-12-25T02:16:22.277Z,26.62
2016-12-25T02:17:02.771Z,26.72
2016-12-25T02:17:43.268Z,26.72
2016-12-25T02:18:23.763Z,26.72
2016-12-25T02:19:04.253Z,26.62
2016-12-25T02:19:44.737Z,26.72
2016-12-25T02:20:25.218Z,26.82
2016-12-25T02:21:05.715Z,26.82
2016-12-25T02:21:46.216Z,26.82
2016-12-25T02:22:26.714Z,26.82
2016-12-25T02:23:07.216Z,26.72
2016-12-25T02:23:47.735Z,26.92
2016-12-25T02:24:28.219Z,26.92
2016-12-25T02:25:08.714Z,26.92
2016-12-25T02:25:49.213Z,26.82
2016-12-25T02:26:29.714Z,26.92
2016-12-25T02:27:10.210Z,26.92
2016-12-25T02:27:50.725Z,26.82
2016-12-25T02:28:31.213Z,26.92
2016-12-25T02:29:11.728Z,26.92
2016-12-25T02:29:52.218Z,26.92
2016-12-25T02:30:32.723Z,27.01
2016-12-25T02:31:13.212Z,26.92
2016-12-25T02:31:53.727Z,27.01
2016-12-25T02:32:34.213Z,27.01
2016-12-25T02:33:14.721Z,27.01
2016-12-25T02:33:55.210Z,26.92
2016-12-25T02:34:35.708Z,27.01
2016-12-25T02:35:16.204Z,26.92
2016-12-25T02:35:56.728Z,27.11
2016-12-25T02:36:37.210Z,27.01
2016-12-25T02:37:17.713Z,27.01
2016-12-25T02:37:58.203Z,27.2
2016-12-25T02:38:38.713Z,27.2
2016-12-25T02:39:19.203Z,27.3
2016-12-25T02:39:59.701Z,27.3
2016-12-25T02:40:40.202Z,27.3
2016-12-25T02:41:20.712Z,27.01
2016-12-25T02:42:01.201Z,27.01
2016-12-25T02:42:41.695Z,27.01
2016-12-25T02:43:22.193Z,27.01
2016-12-25T02:44:02.951Z,27.3
2016-12-25T02:44:43.458Z,27.3
2016-12-25T02:45:23.953Z,27.11
2016-12-25T02:46:04.451Z,27.3
2016-12-25T02:46:44.941Z,27.11
2016-12-25T02:47:25.410Z,27.3
2016-12-25T02:48:05.912Z,27.11
2016-12-25T02:48:46.398Z,27.2
2016-12-25T02:49:26.908Z,27.2
2016-12-25T02:50:07.397Z,27.11
2016-12-25T02:50:47.906Z,27.2
2016-12-25T02:51:28.398Z,27.11
2016-12-25T02:52:08.892Z,27.11
2016-12-25T02:52:49.397Z,27.11
2016-12-25T02:53:29.890Z,27.11
2016-12-25T02:54:10.392Z,27.2
2016-12-25T02:54:50.901Z,27.2
2016-12-25T02:55:31.392Z,27.3
2016-12-25T02:56:11.885Z,27.11
2016-12-25T02:56:52.382Z,27.2
2016-12-25T02:57:32.874Z,27.3
2016-12-25T02:58:13.362Z,27.2
2016-12-25T02:58:53.848Z,27.39
2016-12-25T02:59:34.346Z,27.11
2016-12-25T03:00:14.839Z,27.49
2016-12-25T03:00:55.336Z,27.2
2016-12-25T03:01:35.835Z,27.39
2016-12-25T03:02:16.344Z,27.39
2016-12-25T03:02:56.835Z,27.3
2016-12-25T03:03:37.333Z,27.39
2016-12-25T03:05:24.803Z,27.59
2016-12-25T03:06:05.311Z,27.59
2016-12-25T03:06:45.803Z,27.3
2016-12-25T03:07:26.307Z,27.39
2016-12-25T03:08:06.798Z,27.2
2016-12-25T03:08:47.317Z,27.69
2016-12-25T03:09:27.805Z,27.39
2016-12-25T03:10:08.310Z,27.39
2016-12-25T03:10:48.798Z,27.39
2016-12-25T03:11:29.298Z,27.3
2016-12-25T03:12:09.796Z,27.49
2016-12-25T03:12:50.315Z,27.39
2016-12-25T03:13:30.799Z,27.39
2016-12-25T03:14:11.321Z,27.39
2016-12-25T03:14:51.794Z,27.49
2016-12-25T03:15:32.313Z,27.39
2016-12-25T03:16:12.798Z,27.49
2016-12-25T03:16:53.304Z,27.49
2016-12-25T03:17:33.793Z,27.49
2016-12-25T03:18:14.304Z,27.49
2016-12-25T03:18:54.794Z,27.39
2016-12-25T03:19:35.288Z,27.39
2016-12-25T03:20:15.768Z,27.49
2016-12-25T03:20:56.255Z,27.3
2016-12-25T03:21:36.748Z,27.69
2016-12-25T03:22:17.239Z,27.39
2016-12-25T03:22:57.753Z,27.49
2016-12-25T03:23:38.237Z,27.59
2016-12-25T03:24:18.733Z,27.49
2016-12-25T03:24:59.212Z,27.69
2016-12-25T03:25:39.704Z,27.59
2016-12-25T03:26:20.193Z,27.69
2016-12-25T03:27:00.681Z,27.97
2016-12-25T03:27:41.176Z,27.97
2016-12-25T03:28:21.674Z,27.87
2016-12-25T03:29:02.159Z,27.87
2016-12-25T03:29:42.655Z,27.78
2016-12-25T03:30:23.147Z,27.78
2016-12-25T03:31:03.638Z,27.69
2016-12-25T03:31:44.129Z,27.69
2016-12-25T03:32:24.627Z,27.69
2016-12-25T03:33:05.122Z,27.87
2016-12-25T03:33:45.610Z,27.69
2016-12-25T03:34:26.090Z,27.78
2016-12-25T03:35:06.575Z,27.87
2016-12-25T03:35:47.071Z,27.69
2016-12-25T03:36:27.561Z,27.69
2016-12-25T03:37:08.055Z,27.69
2016-12-25T03:37:48.544Z,27.78
2016-12-25T03:38:29.047Z,27.78
2016-12-25T03:39:09.560Z,27.69
2016-12-25T03:39:50.043Z,27.69
2016-12-25T03:40:30.533Z,27.97
2016-12-25T03:41:11.017Z,28.07
2016-12-25T03:41:51.516Z,27.59
2016-12-25T03:42:31.995Z,27.87
2016-12-25T03:43:12.486Z,27.97
2016-12-25T03:43:52.992Z,27.78
2016-12-25T03:44:33.469Z,27.97
2016-12-25T03:45:13.971Z,27.97
2016-12-25T03:45:54.462Z,28.07
2016-12-25T03:46:34.962Z,27.97
2016-12-25T03:47:15.458Z,28.16
2016-12-25T03:47:55.938Z,28.16
2016-12-25T03:48:36.424Z,28.07
2016-12-25T03:49:16.910Z,28.07
2016-12-25T03:49:57.403Z,28.07
2016-12-25T03:50:37.910Z,28.07
2016-12-25T03:51:18.417Z,28.07
2016-12-25T03:51:58.914Z,28.07
2016-12-25T03:52:39.416Z,28.07
2016-12-25T03:53:19.902Z,28.26
2016-12-25T03:54:00.412Z,28.26
2016-12-25T03:54:40.902Z,28.07
2016-12-25T03:55:21.399Z,27.97
2016-12-25T03:56:01.896Z,28.16
2016-12-25T03:56:42.385Z,28.07
2016-12-25T03:57:22.873Z,28.07
2016-12-25T03:58:03.353Z,27.97
2016-12-25T03:58:43.840Z,28.16
2016-12-25T03:59:24.323Z,28.16
2016-12-25T04:00:04.810Z,28.26
2016-12-25T04:00:45.303Z,28.16
2016-12-25T04:01:25.794Z,28.26
2016-12-25T04:02:06.290Z,28.26
2016-12-25T04:02:46.794Z,28.07
2016-12-25T04:03:27.284Z,28.36
2016-12-25T04:04:07.768Z,28.26
2016-12-25T04:04:48.254Z,28.26
2016-12-25T04:05:28.748Z,28.26
2016-12-25T04:06:09.235Z,28.36
2016-12-25T04:06:49.737Z,28.36
2016-12-25T04:07:30.234Z,28.26
2016-12-25T04:08:10.733Z,28.36
2016-12-25T04:08:51.211Z,28.26
2016-12-25T04:09:31.711Z,28.26
2016-12-25T04:10:12.225Z,28.26
2016-12-25T04:10:52.711Z,28.26
2016-12-25T04:11:33.200Z,28.26
2016-12-25T04:12:13.682Z,28.36
2016-12-25T04:12:54.179Z,28.36
2016-12-25T04:13:34.675Z,28.36
2016-12-25T04:14:15.187Z,28.36
2016-12-25T04:14:55.678Z,28.36
2016-12-25T04:15:36.177Z,28.26
2016-12-25T04:16:16.673Z,28.45
2016-12-25T04:16:57.190Z,28.36
2016-12-25T04:17:37.676Z,28.26
2016-12-25T04:18:18.161Z,28.36
2016-12-25T04:18:58.648Z,28.36
2016-12-25T04:19:39.136Z,28.45
2016-12-25T04:20:19.631Z,28.16
2016-12-25T04:21:00.121Z,28.45
2016-12-25T04:21:40.628Z,28.36
2016-12-25T04:22:21.117Z,28.36
2016-12-25T04:23:01.612Z,28.36
2016-12-25T04:23:42.107Z,28.26
2016-12-25T04:24:22.595Z,28.26
2016-12-25T04:25:03.095Z,28.16
2016-12-25T04:25:43.588Z,28.36
2016-12-25T04:26:24.087Z,28.26
2016-12-25T04:27:04.593Z,28.26
2016-12-25T04:27:45.081Z,28.55
2016-12-25T04:28:25.563Z,28.26
2016-12-25T04:29:06.058Z,28.55
2016-12-25T04:29:46.561Z,28.55
2016-12-25T04:30:27.059Z,28.74
2016-12-25T04:31:07.566Z,28.55
2016-12-25T04:31:48.058Z,28.74
2016-12-25T04:32:28.556Z,28.64
2016-12-25T04:33:09.074Z,28.93
2016-12-25T04:33:49.561Z,28.93
2016-12-25T04:34:30.055Z,28.84
2016-12-25T04:35:10.556Z,28.84
2016-12-25T04:35:51.068Z,28.64
2016-12-25T04:36:31.557Z,28.55
2016-12-25T04:37:12.065Z,28.45
2016-12-25T04:37:52.557Z,28.93
2016-12-25T04:38:33.046Z,28.93
2016-12-25T04:39:13.540Z,28.93
2016-12-25T04:39:54.035Z,28.45
2016-12-25T04:40:34.680Z,28.55
2016-12-25T04:41:15.178Z,28.45
2016-12-25T04:41:55.671Z,28.55
2016-12-25T04:42:36.165Z,28.55
2016-12-25T04:43:16.653Z,28.36
2016-12-25T04:43:57.149Z,28.45
2016-12-25T04:44:37.645Z,28.36
2016-12-25T04:45:18.134Z,28.36
2016-12-25T04:45:58.628Z,28.36
2016-12-25T04:46:39.242Z,28.26
2016-12-25T04:47:19.726Z,28.45
2016-12-25T04:48:00.213Z,28.64
2016-12-25T04:48:40.708Z,28.64
2016-12-25T04:49:21.198Z,29.13
2016-12-25T04:50:01.706Z,28.64
2016-12-25T04:50:42.191Z,28.64
2016-12-25T04:51:22.695Z,28.74
2016-12-25T04:52:03.193Z,28.93
2016-12-25T04:52:43.688Z,28.74
2016-12-25T04:53:24.170Z,28.74
2016-12-25T04:54:04.657Z,28.74
2016-12-25T04:54:45.153Z,28.74
2016-12-25T04:55:25.640Z,28.84
2016-12-25T04:56:06.150Z,28.93
2016-12-25T04:56:46.640Z,28.93
2016-12-25T04:57:27.136Z,28.84
2016-12-25T04:58:07.631Z,28.84
2016-12-25T04:58:48.120Z,29.03
2016-12-25T04:59:28.611Z,28.93
2016-12-25T05:00:09.098Z,28.93
2016-12-25T05:00:49.595Z,28.84
2016-12-25T05:01:30.085Z,29.03
2016-12-25T05:02:10.577Z,29.03
2016-12-25T05:02:51.073Z,29.13
2016-12-25T05:03:31.561Z,28.93
2016-12-25T05:04:12.057Z,28.93
2016-12-25T05:04:52.565Z,28.84
2016-12-25T05:05:33.038Z,28.84
2016-12-25T05:06:13.529Z,28.93
2016-12-25T05:06:54.026Z,29.13
2016-12-25T05:07:34.522Z,29.13
2016-12-25T05:08:15.008Z,29.13
2016-12-25T05:08:55.500Z,29.03
2016-12-25T05:09:36.000Z,29.13
2016-12-25T05:10:16.500Z,29.13
2016-12-25T05:10:57.007Z,29.13
2016-12-25T05:11:37.498Z,28.93
2016-12-25T05:12:17.981Z,29.22
2016-12-25T05:12:58.480Z,29.22
2016-12-25T05:13:38.971Z,29.13
2016-12-25T05:14:19.466Z,29.22
2016-12-25T05:14:59.948Z,29.22
2016-12-25T05:15:40.442Z,29.22
2016-12-25T05:16:20.944Z,29.13
2016-12-25T05:17:01.445Z,29.03
2016-12-25T05:17:41.938Z,29.13
2016-12-25T05:18:22.419Z,29.13
2016-12-25T05:19:02.925Z,29.22
2016-12-25T05:19:43.414Z,29.22
2016-12-25T05:20:23.931Z,29.13
2016-12-25T05:21:04.406Z,29.22
2016-12-25T05:21:44.893Z,29.22
2016-12-25T05:22:25.388Z,29.13
2016-12-25T05:23:05.866Z,29.22
2016-12-25T05:23:46.367Z,29.22
2016-12-25T05:24:26.864Z,29.22
2016-12-25T05:25:07.354Z,29.22
2016-12-25T05:25:47.837Z,29.32
2016-12-25T05:26:28.313Z,29.41
2016-12-25T05:27:08.823Z,29.41
2016-12-25T05:27:49.307Z,29.41
2016-12-25T05:28:29.801Z,29.32
2016-12-25T05:29:10.302Z,29.41
2016-12-25T05:29:50.812Z,29.41
2016-12-25T05:30:31.301Z,29.51
2016-12-25T05:31:11.814Z,29.41
2016-12-25T05:31:52.303Z,29.51
2016-12-25T05:32:32.797Z,29.51
2016-12-25T05:33:13.281Z,29.41
2016-12-25T05:33:53.770Z,29.41
2016-12-25T05:34:34.271Z,29.41
2016-12-25T05:35:14.750Z,29.41
2016-12-25T05:35:55.258Z,29.41
2016-12-25T05:36:35.747Z,29.41
2016-12-25T05:37:16.243Z,29.41
2016-12-25T05:37:56.737Z,29.41
2016-12-25T05:38:37.225Z,29.41
2016-12-25T05:39:17.716Z,29.41
2016-12-25T05:39:58.211Z,29.41
2016-12-25T05:40:38.702Z,29.32
2016-12-25T05:41:19.191Z,29.41
2016-12-25T05:41:59.683Z,29.32
2016-12-25T05:42:40.168Z,29.32
2016-12-25T05:43:20.666Z,29.22
2016-12-25T05:44:01.160Z,29.41
2016-12-25T05:44:41.646Z,29.22
2016-12-25T05:45:22.153Z,29.32
2016-12-25T05:46:02.637Z,29.32
2016-12-25T05:46:43.130Z,29.32
2016-12-25T05:47:23.612Z,29.22
2016-12-25T05:48:04.107Z,29.32
2016-12-25T05:48:44.613Z,29.32
2016-12-25T05:49:25.095Z,29.32
2016-12-25T05:50:05.593Z,29.32
2016-12-25T05:50:46.082Z,29.22
2016-12-25T05:51:26.575Z,29.22
2016-12-25T05:52:07.079Z,29.32
2016-12-25T05:52:47.588Z,29.32
2016-12-25T05:53:28.078Z,29.22
2016-12-25T05:54:08.574Z,29.22
2016-12-25T05:54:49.078Z,29.32
2016-12-25T05:55:29.573Z,29.32
2016-12-25T05:56:10.070Z,29.22
2016-12-25T05:56:50.562Z,29.22
2016-12-25T05:57:31.050Z,29.32
2016-12-25T05:58:11.542Z,29.41
2016-12-25T05:58:52.034Z,29.32
2016-12-25T05:59:32.526Z,29.41
2016-12-25T06:00:13.043Z,29.51
2016-12-25T06:00:53.534Z,29.61
2016-12-25T06:01:34.030Z,29.51
2016-12-25T06:02:14.525Z,29.61
2016-12-25T06:02:55.029Z,29.51
2016-12-25T06:03:35.517Z,29.51
2016-12-25T06:04:16.015Z,29.61
2016-12-25T06:04:56.516Z,29.61
2016-12-25T06:05:37.014Z,29.51
2016-12-25T06:06:17.494Z,29.61
2016-12-25T06:06:57.988Z,29.7
2016-12-25T06:07:38.487Z,29.61
2016-12-25T06:08:19.882Z,29.61
2016-12-25T06:09:00.382Z,29.61
2016-12-25T06:09:40.883Z,29.61
2016-12-25T06:10:21.382Z,29.7
2016-12-25T06:11:01.875Z,29.7
2016-12-25T06:11:42.361Z,29.7
2016-12-25T06:12:22.851Z,29.51
2016-12-25T06:13:03.342Z,29.51
2016-12-25T06:13:43.838Z,29.51
2016-12-25T06:14:24.327Z,29.51
2016-12-25T06:15:04.822Z,29.61
2016-12-25T06:15:45.373Z,29.51
2016-12-25T06:16:25.873Z,29.51
2016-12-25T06:17:06.358Z,29.51
2016-12-25T06:17:46.849Z,29.51
2016-12-25T06:18:27.326Z,29.51
2016-12-25T06:19:07.823Z,29.51
2016-12-25T06:19:48.346Z,29.7
2016-12-25T06:20:28.847Z,29.61
2016-12-25T06:21:09.338Z,29.7
2016-12-25T06:21:49.832Z,29.51
2016-12-25T06:22:30.555Z,29.61
2016-12-25T06:23:11.054Z,29.7
2016-12-25T06:23:51.556Z,29.51
2016-12-25T06:24:32.045Z,29.7
2016-12-25T06:25:12.531Z,29.61
2016-12-25T06:25:53.032Z,29.61
2016-12-25T06:26:33.535Z,29.61
2016-12-25T06:27:14.030Z,29.51
2016-12-25T06:27:54.519Z,29.8
2016-12-25T06:28:35.018Z,29.8
2016-12-25T06:29:15.525Z,29.8
2016-12-25T06:29:56.017Z,29.7
2016-12-25T06:30:36.508Z,29.8
2016-12-25T06:31:17.039Z,29.7
2016-12-25T06:31:57.518Z,29.8
2016-12-25T06:32:38.030Z,29.8
2016-12-25T06:33:18.518Z,29.8
2016-12-25T06:33:59.029Z,29.8
2016-12-25T06:34:39.529Z,29.8
2016-12-25T06:35:20.024Z,29.8
2016-12-25T06:36:00.513Z,29.8
2016-12-25T06:36:41.032Z,29.7
2016-12-25T06:37:21.517Z,29.7
2016-12-25T06:38:02.021Z,29.8
2016-12-25T06:38:42.510Z,30.18
2016-12-25T06:39:23.022Z,29.99
2016-12-25T06:40:03.512Z,29.7
2016-12-25T06:40:43.991Z,29.99
2016-12-25T06:41:24.477Z,30.28
2016-12-25T06:42:04.959Z,30.08
2016-12-25T06:42:45.453Z,30.08
2016-12-25T06:43:25.954Z,29.99
2016-12-25T06:44:06.464Z,29.9
2016-12-25T06:44:46.955Z,30.18
2016-12-25T06:45:27.448Z,29.9
2016-12-25T06:46:07.955Z,29.9
2016-12-25T06:46:48.462Z,29.99
2016-12-25T06:47:28.951Z,29.99
2016-12-25T06:48:09.446Z,30.08
2016-12-25T06:48:49.962Z,30.08
2016-12-25T06:49:30.401Z,30.18
2016-12-25T06:50:10.907Z,29.9
2016-12-25T06:50:51.398Z,30.28
2016-12-25T06:51:31.890Z,30.08
2016-12-25T06:52:12.427Z,29.9
2016-12-25T06:52:53.112Z,30.18
2016-12-25T06:53:33.600Z,30.08
2016-12-25T06:54:14.093Z,30.08
2016-12-25T06:54:54.583Z,30.28
2016-12-25T06:55:35.125Z,30.18
2016-12-25T06:56:15.612Z,30.28
2016-12-25T06:56:56.106Z,30.28
2016-12-25T06:57:36.596Z,30.08
2016-12-25T06:58:17.087Z,30.18
2016-12-25T06:58:57.586Z,30.18
2016-12-25T06:59:38.074Z,30.28
2016-12-25T07:00:18.564Z,30.28
2016-12-25T07:00:59.059Z,30.28
2016-12-25T07:01:39.539Z,30.18
2016-12-25T07:02:20.031Z,30.18
2016-12-25T07:03:00.493Z,30.18
2016-12-25T07:03:41.003Z,30.08
2016-12-25T07:04:21.487Z,30.08
2016-12-25T07:05:01.983Z,30.08
2016-12-25T07:05:42.487Z,30.08
2016-12-25T07:06:23.001Z,30.08
2016-12-25T07:07:03.485Z,29.99
2016-12-25T07:07:43.978Z,30.08
2016-12-25T07:08:24.473Z,30.57
2016-12-25T07:09:04.951Z,30.66
2016-12-25T07:09:45.448Z,30.38
2016-12-25T07:10:25.931Z,30.28
2016-12-25T07:11:06.453Z,30.57
2016-12-25T07:11:46.946Z,30.28
2016-12-25T07:12:27.438Z,30.47
2016-12-25T07:13:07.930Z,30.38
2016-12-25T07:13:48.421Z,30.28
2016-12-25T07:14:28.919Z,30.38
2016-12-25T07:15:09.409Z,30.28
2016-12-25T07:15:49.890Z,30.38
2016-12-25T07:16:30.376Z,30.38
2016-12-25T07:17:10.883Z,30.47
2016-12-25T07:17:51.426Z,30.57
2016-12-25T07:18:31.921Z,29.99
2016-12-25T07:19:12.432Z,29.99
2016-12-25T07:19:52.921Z,29.99
2016-12-25T07:20:33.431Z,30.47
2016-12-25T07:21:13.920Z,29.99
2016-12-25T07:21:54.431Z,30.08
2016-12-25T07:22:34.914Z,29.9
2016-12-25T07:23:15.506Z,29.9
2016-12-25T07:23:55.986Z,30.38
2016-12-25T07:24:36.469Z,29.99
2016-12-25T07:25:16.959Z,30.28
2016-12-25T07:25:57.458Z,30.28
2016-12-25T07:26:37.946Z,30.08
2016-12-25T07:27:18.438Z,30.38
2016-12-25T07:27:58.918Z,30.18
2016-12-25T07:28:39.420Z,30.08
2016-12-25T07:29:19.911Z,30.18
2016-12-25T07:30:00.426Z,30.28
2016-12-25T07:30:40.910Z,30.38
2016-12-25T07:31:21.406Z,30.18
2016-12-25T07:32:01.910Z,30.28
2016-12-25T07:32:42.405Z,30.28
2016-12-25T07:33:22.907Z,30.08
2016-12-25T07:34:03.401Z,30.18
2016-12-25T07:34:43.902Z,30.28
2016-12-25T07:35:24.388Z,30.18
2016-12-25T07:36:04.883Z,30.38
2016-12-25T07:36:45.377Z,30.28
2016-12-25T07:37:25.875Z,30.38
2016-12-25T07:38:06.367Z,30.08
2016-12-25T07:38:46.862Z,30.28
2016-12-25T07:39:27.355Z,30.38
2016-12-25T07:40:07.841Z,30.28
2016-12-25T07:40:48.346Z,30.38
2016-12-25T07:41:28.823Z,30.28
2016-12-25T07:42:09.337Z,30.08
2016-12-25T07:42:49.828Z,30.28
2016-12-25T07:43:30.312Z,30.18
2016-12-25T07:44:10.797Z,30.08
2016-12-25T07:44:51.300Z,30.47
2016-12-25T07:45:31.790Z,30.18
2016-12-25T07:46:12.274Z,30.47
2016-12-25T07:46:52.769Z,30.28
2016-12-25T07:47:33.267Z,30.47
2016-12-25T07:48:13.764Z,30.38
2016-12-25T07:48:54.253Z,30.38
2016-12-25T07:49:34.751Z,30.28
2016-12-25T07:50:15.238Z,30.38
2016-12-25T07:50:55.718Z,30.18
2016-12-25T07:51:36.235Z,30.18
2016-12-25T07:52:16.715Z,30.28
2016-12-25T07:52:57.208Z,30.28
2016-12-25T07:53:37.695Z,30.18
2016-12-25T07:54:18.195Z,30.18
2016-12-25T07:54:58.685Z,30.18
2016-12-25T07:55:39.192Z,30.38
2016-12-25T07:56:19.690Z,30.66
2016-12-25T07:57:00.178Z,30.38
2016-12-25T07:57:40.670Z,30.28
2016-12-25T07:58:21.155Z,30.57
2016-12-25T07:59:01.637Z,30.66
2016-12-25T07:59:42.129Z,30.57
2016-12-25T08:00:22.624Z,30.28
2016-12-25T08:01:03.117Z,30.57
2016-12-25T08:01:43.604Z,30.57
2016-12-25T08:02:24.102Z,30.38
2016-12-25T08:03:04.601Z,30.66
2016-12-25T08:03:45.092Z,30.47
2016-12-25T08:04:25.578Z,30.47
2016-12-25T08:05:06.085Z,30.47
2016-12-25T08:05:46.570Z,30.38
2016-12-25T08:06:27.069Z,30.47
2016-12-25T08:07:07.557Z,30.38
2016-12-25T08:07:48.051Z,30.76
2016-12-25T08:08:28.541Z,30.66
2016-12-25T08:09:09.044Z,30.38
2016-12-25T08:09:49.536Z,30.66
2016-12-25T08:10:30.025Z,30.47
2016-12-25T08:11:10.529Z,30.47
2016-12-25T08:11:51.026Z,30.76
2016-12-25T08:12:31.521Z,30.38
2016-12-25T08:13:12.011Z,30.47
2016-12-25T08:13:52.510Z,30.47
2016-12-25T08:14:33.009Z,30.47
2016-12-25T08:15:13.521Z,30.57
2016-12-25T08:15:54.010Z,30.47
2016-12-25T08:16:34.506Z,30.47
2016-12-25T08:17:15.009Z,30.47
2016-12-25T08:17:55.503Z,30.47
2016-12-25T08:18:36.002Z,30.38
2016-12-25T08:19:16.514Z,30.47
2016-12-25T08:19:57.006Z,30.57
2016-12-25T08:20:37.501Z,30.66
2016-12-25T08:21:17.983Z,30.76
2016-12-25T08:21:58.479Z,30.47
2016-12-25T08:22:38.974Z,30.57
2016-12-25T08:23:19.458Z,30.66
2016-12-25T08:23:59.962Z,30.76
2016-12-25T08:24:40.451Z,30.66
2016-12-25T08:25:20.943Z,30.57
2016-12-25T08:26:01.450Z,30.47
2016-12-25T08:26:41.945Z,30.66
2016-12-25T08:27:22.447Z,30.47
2016-12-25T08:28:02.941Z,30.76
2016-12-25T08:28:43.445Z,30.57
2016-12-25T08:29:23.943Z,30.57
2016-12-25T08:30:04.443Z,30.66
2016-12-25T08:30:44.952Z,30.57
2016-12-25T08:31:25.442Z,30.28
2016-12-25T08:32:05.954Z,30.38
2016-12-25T08:32:46.449Z,30.66
2016-12-25T08:33:26.951Z,30.95
2016-12-25T08:34:07.440Z,30.57
2016-12-25T08:34:47.936Z,30.95
2016-12-25T08:35:28.431Z,30.95
2016-12-25T08:36:08.914Z,30.47
2016-12-25T08:36:49.414Z,30.95
2016-12-25T08:37:29.908Z,30.57
2016-12-25T08:38:10.413Z,30.85
2016-12-25T08:38:50.904Z,30.57
2016-12-25T08:39:31.805Z,30.85
2016-12-25T08:40:12.290Z,30.95
2016-12-25T08:40:52.803Z,30.85
2016-12-25T08:41:33.293Z,30.95
2016-12-25T08:42:13.788Z,30.95
2016-12-25T08:42:54.286Z,31.05
2016-12-25T08:43:34.804Z,30.95